ADDS METAR Data INFO
IDs: Format: Raw Decoded Include TAF

Data at: 1427 UTC 22 Feb 2018

KFCI 221356Z AUTO 20008KT 9SM OVC004 17/17 A3045 RMK AO2 SLP327 T01720167 $
KFCI 221322Z AUTO 4SM BR OVC002 17/17 A3044 RMK AO2 $
KFCI 221315Z AUTO 2 1/2SM BR OVC002 17/17 A3044 RMK AO2 $
KFCI 221303Z AUTO 19005KT 1 1/2SM BR OVC002 17/17 A3043 RMK AO2 $
KFCI 221256Z AUTO 19005KT 1SM BR OVC002 17/16 A3043 RMK AO2 RAE44 SLP320 P0000 T01670161 $
KFCI 221249Z AUTO 18005KT 3/4SM BR OVC002 16/16 A3043 RMK AO2 RAE44 P0000 $
KFCI 221225Z AUTO 19005KT 1/2SM -RA FG OVC002 16/16 A3042 RMK AO2 P0000 $
KFCI 221215Z AUTO 18004KT 1/4SM -RA FG OVC002 16/16 A3042 RMK AO2 P0000 $
KFCI 221203Z AUTO 18003KT 1/2SM -RA FG OVC002 16/16 A3042 RMK AO2 P0000 $
KFCI 221156Z AUTO 19004KT 1/4SM -RA FG OVC002 16/16 A3042 RMK AO2 SLP316 P0000 60000 T01560156 10178 20133 53007 $
KFCI 221056Z AUTO 17003KT 1/4SM -RA FG OVC002 16/15 A3041 RMK AO2 SLP313 P0000 T01560150 $
KFCI 221025Z AUTO 16004KT 1/4SM -RA FG BKN002 OVC011 14/14 A3040 RMK AO2 P0000 $
KFCI 221017Z AUTO 16005KT 1/4SM -RA FG SCT002 OVC011 14/14 A3040 RMK AO2 P0000 $
KFCI 220956Z AUTO 17003KT 1/4SM -RA FG BKN013 14/14 A3039 RMK AO2 RAB15 SLP308 P0000 T01440139 $
KFCI 220952Z AUTO 17003KT 1/4SM -RA FG SCT013 14/14 A3039 RMK AO2 RAB15 P0000 $
KFCI 220948Z AUTO 16003KT 1/2SM -RA FG VV014 14/14 A3039 RMK AO2 RAB15 P0000 $
KFCI 220938Z AUTO 16003KT 3/4SM -RA BR BKN015 15/15 A3039 RMK AO2 VIS 1/4V5 RAB15 P0000 $
KFCI 220910Z AUTO 17003KT 1/4SM FG VV017 14/14 A3039 RMK AO2 $
KFCI 220903Z AUTO 18003KT 1/2SM FG VV013 14/14 A3040 RMK AO2 VIS 1/4V2 1/2 $
KFCI 220856Z AUTO 18004KT 1SM BR VV012 14/14 A3040 RMK AO2 VIS 1/2V3 SLP309 T01390139 58001 $
KFCI 220854Z AUTO 17005KT 3/4SM BR VV011 14/14 A3040 RMK AO2 $
KFCI 220831Z AUTO 16003KT 1/4SM FG VV012 14/14 A3040 RMK AO2 $
KFCI 220825Z AUTO 18003KT 3/4SM BR CLR 14/14 A3040 RMK AO2 $
KFCI 220821Z AUTO 17003KT 1 3/4SM BR CLR 14/13 A3040 RMK AO2 VIS 1/2V5 $
KFCI 220814Z AUTO 17003KT 3SM BR CLR 14/14 A3040 RMK AO2 $
KFCI 220812Z AUTO 17003KT 1SM BR CLR 14/14 A3040 RMK AO2 VIS M1/4V5 $
KFCI 220802Z AUTO 17004KT 1/4SM FG CLR 14/14 A3040 RMK AO2 VIS M1/4V1 1/4 TSNO $
KFCI 220756Z AUTO 17004KT 3/4SM BR CLR 14/14 A3040 RMK AO2 SLP311 T01440139 $
KFCI 220656Z AUTO 19003KT 10SM BKN049 17/16 A3040 RMK AO2 SLP310 T01720156 $
KFCI 220556Z AUTO 20003KT 10SM CLR 18/16 A3040 RMK AO2 SLP309 T01780161 10217 20178 51004 $
KFCI 220456Z AUTO 20003KT 10SM CLR 18/17 A3039 RMK AO2 SLP307 T01830167 402670167 $
KFCI 220356Z AUTO 20003KT 10SM CLR 19/17 A3040 RMK AO2 SLP308 T01890167 $
KFCI 212356Z AUTO 18007KT 10SM CLR 22/17 A3036 RMK AO2 SLP298 T02170172 10267 20217 53007 $
KFCI 212256Z AUTO 18007G15KT 10SM CLR 23/17 A3035 RMK AO2 SLP293 T02330167 $
KFCI 212156Z AUTO 19011KT 10SM CLR 25/17 A3034 RMK AO2 SLP289 T02500172 $
KFCI 212056Z AUTO 21009KT 10SM BKN045 25/17 A3034 RMK AO2 SLP290 T02500167 56015 $
KFCI 211956Z AUTO 20008KT 10SM SCT041 26/17 A3035 RMK AO2 SLP292 T02610172 $
KFCI 211856Z AUTO 22009KT 10SM BKN039 OVC048 25/17 A3037 RMK AO2 SLP297 T02500167 $
KFCI 211756Z AUTO 24010G14KT 10SM BKN032 BKN040 25/17 A3039 RMK AO2 SLP305 T02500172 10256 20178 58019 $
KFCI 211656Z AUTO 25010KT 10SM OVC030 24/17 A3042 RMK AO2 SLP315 T02390172 $
KFCI 211556Z AUTO 21012KT 10SM OVC026 22/17 A3044 RMK AO2 SLP324 T02220172 $
KFCI 211456Z AUTO 21008G14KT 10SM OVC022 21/17 A3044 RMK AO2 SLP325 T02110172 53005 $
KFCI 211356Z AUTO 21006KT 10SM OVC015 19/17 A3044 RMK AO2 SLP325 T01940167 $
KFCI 211349Z AUTO 23008KT 10SM BKN013 19/17 A3044 RMK AO2 $
KFCI 211256Z AUTO 20005KT 10SM SCT020 18/17 A3043 RMK AO2 SLP319 T01830167 $
KFCI 211235Z AUTO 20006KT 10SM BKN016 OVC020 18/16 A3042 RMK AO2 $
KFCI 210756Z AUTO 18010KT 10SM CLR 17/16 A3038 RMK AO2 SLP304 T01720161 $
KFCI 210656Z AUTO 20006KT 10SM CLR 17/16 A3040 RMK AO2 SLP309 T01720161 $
KFCI 210556Z AUTO 19005KT 10SM CLR 17/16 A3040 RMK AO2 SLP311 T01720161 10194 20156 58002 $